Time;durP1;ratioP1;P1;durP2;ratioP2;P2;SDS_P1;SDS_P2;PMS_P1;PMS_P2;Temp;Humidity;BMP_temperature;BMP_pressure;BME280_temperature;BME280_humidity;BME280_pressure;Samples;Min_cycle;Max_cycle;Signal;HPM_P1;HPM_P2
2023/07/09 08:57:36;;;;;;;8.63;5.47;;;;;;;27.24;61.67;101538.69;5064576;28;20788;-65
2023/07/09 09:00:12;;;;;;;8.15;5.47;;;;;;;27.32;62.50;101531.50;5069901;28;20112;-65
2023/07/09 09:03:24;;;;;;;12.38;6.07;;;;;;;27.23;60.53;101531.47;5068071;28;20051;-65
2023/07/09 09:05:49;;;;;;;12.60;5.68;;;;;;;27.32;59.66;101524.00;5032669;28;20060;-65
2023/07/09 09:08:27;;;;;;;10.25;5.95;;;;;;;27.45;61.35;101515.84;5029741;28;20033;-65
2023/07/09 09:11:29;;;;;;;9.90;5.60;;;;;;;27.51;61.85;101517.38;5032909;28;20443;-65
2023/07/09 09:13:58;;;;;;;10.77;5.50;;;;;;;27.68;61.22;101525.72;5046879;28;20021;-69
2023/07/09 09:16:24;;;;;;;8.13;5.65;;;;;;;27.76;60.22;101522.13;5050391;28;20520;-66
2023/07/09 09:18:50;;;;;;;8.80;5.57;;;;;;;27.88;59.16;101517.88;5069124;28;20104;-65
2023/07/09 09:21:27;;;;;;;8.98;5.35;;;;;;;27.92;58.90;101518.88;5068909;28;20346;-65
2023/07/09 09:23:58;;;;;;;9.63;5.53;;;;;;;28.00;57.91;101520.84;5049141;28;20013;-66
2023/07/09 09:26:29;;;;;;;10.23;5.60;;;;;;;28.09;58.86;101520.84;5059063;28;20045;-65
2023/07/09 09:28:55;;;;;;;6.20;5.10;;;;;;;28.07;56.26;101514.81;5067665;28;20060;-64
2023/07/09 09:31:21;;;;;;;10.23;5.43;;;;;;;28.13;58.28;101504.31;5057526;28;20428;-66
2023/07/09 09:33:49;;;;;;;8.40;5.45;;;;;;;28.18;56.51;101506.94;5047824;28;20029;-66
2023/07/09 09:36:23;;;;;;;7.65;5.53;;;;;;;28.18;55.91;101504.16;5046766;28;20168;-66
2023/07/09 09:38:50;;;;;;;10.55;5.50;;;;;;;28.22;56.59;101496.78;5037961;28;20033;-65
2023/07/09 09:41:22;;;;;;;8.73;4.97;;;;;;;28.30;55.03;101501.50;5048365;28;20059;-66
2023/07/09 09:43:51;;;;;;;8.60;5.03;;;;;;;28.29;53.75;101499.84;5065449;28;20037;-66
2023/07/09 09:46:21;;;;;;;7.15;5.13;;;;;;;28.40;53.88;101491.97;5067791;28;20144;-66
2023/07/09 09:48:49;;;;;;;9.65;5.00;;;;;;;28.52;53.97;101492.13;5048982;28;20021;-66
2023/07/09 09:51:16;;;;;;;14.23;4.90;;;;;;;28.60;52.18;101487.72;5048049;28;20486;-66
2023/07/09 09:53:47;;;;;;;9.15;5.10;;;;;;;28.79;52.84;101478.94;5056375;28;20060;-66
2023/07/09 09:56:18;;;;;;;10.30;5.03;;;;;;;28.83;52.40;101473.53;5068113;28;20057;-66
2023/07/09 09:58:44;;;;;;;14.27;5.72;;;;;;;28.86;52.59;101472.88;5068611;28;20099;-70
2023/07/09 10:01:17;;;;;;;9.20;4.75;;;;;;;28.95;53.30;101470.84;5064119;28;20028;-69
2023/07/09 10:03:46;;;;;;;12.95;5.10;;;;;;;29.02;53.28;101470.31;5050335;28;20033;-70
2023/07/09 10:06:19;;;;;;;8.82;5.22;;;;;;;29.09;51.76;101474.19;5048759;28;20021;-69
2023/07/09 10:08:51;;;;;;;10.73;5.20;;;;;;;29.25;52.42;101480.03;5036258;28;20025;-67
2023/07/09 10:11:26;;;;;;;9.95;5.50;;;;;;;29.46;52.63;101485.63;5033949;28;20022;-68
2023/07/09 10:14:00;;;;;;;7.22;4.47;;;;;;;29.64;52.47;101475.19;5034205;28;20444;-68
2023/07/09 10:16:38;;;;;;;8.25;4.80;;;;;;;29.73;52.21;101477.06;5051665;28;20479;-68
2023/07/09 10:19:11;;;;;;;9.60;5.15;;;;;;;29.74;49.98;101490.66;5054097;28;20032;-70
2023/07/09 10:21:39;;;;;;;9.70;5.00;;;;;;;29.65;49.44;101501.09;5054628;28;20375;-68
2023/07/09 10:24:37;;;;;;;6.63;4.85;;;;;;;29.66;49.57;101511.09;5054799;28;20059;-68
2023/07/09 10:27:08;;;;;;;11.27;4.72;;;;;;;29.65;49.49;101501.09;5055060;28;20064;-68
2023/07/09 10:29:55;;;;;;;10.18;5.00;;;;;;;29.72;50.46;101508.94;5043204;28;20040;-67
2023/07/09 10:32:43;;;;;;;8.73;5.28;;;;;;;29.85;52.02;101503.09;5034528;28;20634;-72
2023/07/09 10:35:29;;;;;;;9.75;4.97;;;;;;;30.12;51.02;101505.63;5052396;28;20048;-71
2023/07/09 10:38:16;;;;;;;8.15;4.60;;;;;;;30.10;49.46;101514.34;5035942;28;20048;-68
2023/07/09 10:40:46;;;;;;;8.18;4.22;;;;;;;30.02;47.78;101504.09;5033937;28;20476;-69
2023/07/09 10:43:18;;;;;;;8.73;4.38;;;;;;;30.22;49.19;101513.59;5034386;28;20025;-68
2023/07/09 10:45:49;;;;;;;7.47;4.50;;;;;;;30.31;48.27;101511.50;5032979;28;20075;-68
2023/07/09 10:48:36;;;;;;;7.00;4.57;;;;;;;30.33;48.49;101500.00;5034200;28;20022;-68
2023/07/09 10:51:03;;;;;;;7.78;4.03;;;;;;;30.42;47.72;101489.59;5033059;28;20025;-68
2023/07/09 10:53:36;;;;;;;7.05;4.32;;;;;;;30.45;47.23;101493.66;5032571;28;20037;-68
2023/07/09 10:56:27;;;;;;;6.72;4.38;;;;;;;30.63;48.31;101480.31;5032214;28;20045;-68
2023/07/09 10:59:17;;;;;;;12.13;4.57;;;;;;;30.53;47.89;101478.81;5014191;28;20025;-68
2023/07/09 11:01:48;;;;;;;6.60;4.40;;;;;;;30.49;47.25;101475.88;5011650;28;20129;-68
2023/07/09 11:04:33;;;;;;;10.45;4.60;;;;;;;30.59;48.16;101483.00;5013922;28;20045;-68
2023/07/09 11:07:03;;;;;;;8.57;4.70;;;;;;;30.71;48.14;101483.03;5014105;28;20481;-68
2023/07/09 11:09:34;;;;;;;8.80;4.63;;;;;;;30.77;47.99;101491.16;5027421;28;20032;-68
2023/07/09 11:12:08;;;;;;;8.55;4.07;;;;;;;30.70;46.54;101486.16;5033835;28;20037;-67
2023/07/09 11:14:40;;;;;;;12.43;4.75;;;;;;;30.75;47.03;101495.13;5040162;28;20055;-68
2023/07/09 11:17:12;;;;;;;9.40;4.32;;;;;;;30.69;46.61;101499.28;5039621;28;20040;-67
2023/07/09 11:19:43;;;;;;;8.45;4.63;;;;;;;30.73;47.49;101505.03;5052638;28;20025;-69
2023/07/09 11:22:24;;;;;;;9.13;4.80;;;;;;;30.86;48.64;101509.47;5053539;28;20051;-71
2023/07/09 11:25:07;;;;;;;11.32;4.68;;;;;;;30.89;48.63;101517.13;5053895;28;20118;-67
2023/07/09 11:27:33;;;;;;;7.57;4.65;;;;;;;30.89;47.69;101510.72;5053368;28;20021;-67
2023/07/09 11:30:24;;;;;;;7.53;4.47;;;;;;;30.96;48.23;101501.78;5053701;28;20032;-67
2023/07/09 11:33:04;;;;;;;7.15;4.72;;;;;;;30.90;47.51;101501.97;5033711;28;20037;-69
2023/07/09 11:35:46;;;;;;;8.90;4.40;;;;;;;30.90;48.60;101501.97;5036816;28;20371;-71
2023/07/09 11:38:22;;;;;;;8.90;4.45;;;;;;;30.91;47.82;101505.63;5035495;28;20017;-67
2023/07/09 11:40:49;;;;;;;9.43;4.38;;;;;;;30.95;47.90;101505.72;5039441;28;20021;-69
2023/07/09 11:43:48;;;;;;;8.63;4.40;;;;;;;30.95;48.82;101514.94;5027856;28;20471;-68
2023/07/09 11:46:19;;;;;;;6.15;3.83;;;;;;;30.89;47.88;101519.94;5055817;28;20372;-68
2023/07/09 11:48:45;;;;;;;;;;;;;;;30.90;49.01;101524.34;5050342;28;20020;-68
2023/07/09 11:51:40;;;;;;;6.93;4.10;;;;;;;30.84;48.17;101524.94;5032042;28;20444;-69
2023/07/09 11:54:05;;;;;;;7.38;4.20;;;;;;;30.79;47.87;101525.97;5033469;28;20104;-69
2023/07/09 11:56:32;;;;;;;5.55;3.78;;;;;;;30.75;48.13;101536.19;5031758;28;20607;-69
2023/07/09 11:58:58;;;;;;;8.98;4.05;;;;;;;30.71;48.18;101540.88;5033538;28;20056;-69
2023/07/09 12:01:29;;;;;;;8.43;4.38;;;;;;;30.62;48.06;101540.97;5030849;28;20099;-68
2023/07/09 12:03:57;;;;;;;7.30;4.25;;;;;;;30.53;47.76;101545.84;5033489;28;20021;-68
2023/07/09 12:06:31;;;;;;;10.75;4.38;;;;;;;30.47;49.47;101531.28;5045570;28;20033;-68
2023/07/09 12:08:57;;;;;;;9.45;4.57;;;;;;;30.51;50.59;101529.44;5031723;28;20028;-68
2023/07/09 12:11:28;;;;;;;6.55;4.43;;;;;;;30.51;51.37;101518.25;5032881;28;20334;-67
2023/07/09 12:14:00;;;;;;;8.48;4.15;;;;;;;30.54;51.65;101520.34;5033146;28;20152;-68
2023/07/09 12:16:30;;;;;;;11.73;4.72;;;;;;;30.54;52.53;101534.31;5032770;28;20478;-67
2023/07/09 12:18:55;;;;;;;9.10;4.70;;;;;;;30.62;54.03;101537.34;5032806;28;20021;-68
2023/07/09 12:21:22;;;;;;;11.15;4.72;;;;;;;30.60;53.41;101534.09;5032733;28;20022;-69
2023/07/09 12:23:48;;;;;;;8.57;4.65;;;;;;;30.46;53.44;101526.84;5031639;28;20026;-69
2023/07/09 12:26:17;;;;;;;8.90;5.47;;;;;;;30.32;54.29;101526.31;5052868;28;20021;-69
2023/07/09 12:28:43;;;;;;;16.45;6.57;;;;;;;30.16;54.38;101524.13;5034106;28;20420;-69
2023/07/09 12:31:15;;;;;;;10.15;6.43;;;;;;;30.08;54.95;101516.69;5027657;28;20117;-67
2023/07/09 12:33:49;;;;;;;11.77;6.75;;;;;;;30.00;55.12;101512.81;5032440;28;20025;-67
2023/07/09 12:36:17;;;;;;;12.32;6.00;;;;;;;29.98;56.01;101515.09;5032479;28;20025;-68
2023/07/09 12:38:45;;;;;;;14.70;7.00;;;;;;;29.92;56.58;101518.47;5028628;28;20072;-69
2023/07/09 12:41:22;;;;;;;12.90;7.72;;;;;;;29.87;56.88;101519.50;5013034;28;20092;-69
2023/07/09 12:43:49;;;;;;;14.52;7.65;;;;;;;29.81;58.17;101527.25;5035644;28;20345;-69
2023/07/09 12:46:15;;;;;;;14.45;8.82;;;;;;;29.80;57.44;101530.34;5052618;28;20028;-69
2023/07/09 12:48:40;;;;;;;15.63;10.13;;;;;;;29.73;59.28;101521.69;5052066;28;20111;-72
2023/07/09 12:51:08;;;;;;;18.48;11.20;;;;;;;29.61;59.88;101514.91;5052547;28;20029;-69
2023/07/09 12:53:36;;;;;;;14.48;11.10;;;;;;;29.56;59.21;101517.06;5047548;28;20035;-70
2023/07/09 12:56:02;;;;;;;17.13;10.82;;;;;;;29.44;59.15;101518.63;5011222;28;20042;-73
2023/07/09 12:58:37;;;;;;;14.38;10.55;;;;;;;29.33;58.65;101521.00;5012650;28;20084;-70
2023/07/09 13:01:16;;;;;;;15.13;9.68;;;;;;;29.25;59.37;101519.06;5010907;28;20076;-69
2023/07/09 13:03:41;;;;;;;14.85;10.00;;;;;;;29.09;61.91;101523.53;5020255;28;20021;-71
2023/07/09 13:06:28;;;;;;;15.77;9.93;;;;;;;29.03;62.30;101525.69;5032086;28;20021;-70
2023/07/09 13:08:59;;;;;;;11.88;9.15;;;;;;;28.94;64.94;101530.50;5034773;28;20072;-70
2023/07/09 13:11:32;;;;;;;14.88;10.15;;;;;;;28.77;66.36;101539.75;5037672;28;20025;-69
2023/07/09 13:14:03;;;;;;;16.92;9.43;;;;;;;28.60;67.07;101543.41;5031200;28;20022;-70
2023/07/09 13:16:29;;;;;;;15.18;9.50;;;;;;;28.48;68.86;101530.13;5030758;28;20017;-70
2023/07/09 13:18:54;;;;;;;17.27;10.43;;;;;;;28.35;69.67;101525.56;5032410;28;20021;-69
2023/07/09 13:21:21;;;;;;;13.43;9.55;;;;;;;28.25;70.45;101518.38;5026892;28;20442;-69
2023/07/09 13:23:48;;;;;;;21.73;10.80;;;;;;;28.16;70.73;101510.03;5039578;28;20024;-69
2023/07/09 13:26:15;;;;;;;13.20;9.57;;;;;;;28.05;71.36;101520.69;5052225;28;20035;-69
2023/07/09 13:28:42;;;;;;;14.55;9.20;;;;;;;28.00;69.08;101520.03;5028786;28;20045;-69
2023/07/09 13:31:14;;;;;;;14.20;8.65;;;;;;;27.89;67.29;101509.19;5033438;28;20029;-69
2023/07/09 13:33:41;;;;;;;12.45;8.18;;;;;;;27.71;66.55;101511.16;5029967;28;20376;-69
2023/07/09 13:36:06;;;;;;;16.35;8.00;;;;;;;27.65;65.61;101520.00;5051802;28;20063;-69
2023/07/09 13:38:32;;;;;;;12.50;7.50;;;;;;;27.58;65.40;101528.81;5045610;28;20053;-70
2023/07/09 13:41:01;;;;;;;9.85;6.53;;;;;;;27.46;65.83;101537.75;5019109;28;20033;-69
2023/07/09 13:43:32;;;;;;;11.05;6.63;;;;;;;27.44;66.40;101570.63;5034489;28;20037;-69
2023/07/09 13:45:59;;;;;;;9.48;6.13;;;;;;;27.33;68.78;101585.97;5035964;28;20029;-69
2023/07/09 13:48:26;;;;;;;12.48;7.43;;;;;;;27.22;74.70;101624.28;5035567;28;20364;-70
2023/07/09 13:50:53;;;;;;;9.90;6.15;;;;;;;27.02;79.91;101657.03;5034358;28;20489;-70
2023/07/09 13:53:26;;;;;;;10.27;6.28;;;;;;;26.87;80.28;101665.75;5037735;28;20117;-69
2023/07/09 13:55:53;;;;;;;11.65;5.90;;;;;;;26.55;87.43;101659.31;5039899;28;20108;-68
2023/07/09 13:58:20;;;;;;;8.90;5.30;;;;;;;26.26;96.08;101663.28;5023442;28;20053;-69
2023/07/09 14:00:48;;;;;;;7.18;5.00;;;;;;;25.90;100.00;101663.22;5031604;28;20107;-69
2023/07/09 14:03:26;;;;;;;9.82;4.93;;;;;;;25.53;100.00;101663.16;5035506;28;20013;-68
2023/07/09 14:05:52;;;;;;;10.75;5.30;;;;;;;25.21;100.00;101659.28;5035186;28;20033;-68
2023/07/09 14:08:20;;;;;;;10.45;5.85;;;;;;;24.98;100.00;101682.41;5035494;28;20025;-69
2023/07/09 14:10:46;;;;;;;9.77;5.68;;;;;;;24.73;100.00;101692.75;5034376;28;20060;-69
2023/07/09 14:13:14;;;;;;;11.18;5.15;;;;;;;24.58;100.00;101704.88;5023191;28;20376;-68
2023/07/09 14:15:40;;;;;;;8.82;4.90;;;;;;;24.38;100.00;101700.44;5044628;28;20036;-69
2023/07/09 14:18:18;;;;;;;7.68;4.78;;;;;;;24.50;100.00;101702.75;5035375;28;20029;-69
2023/07/09 14:20:43;;;;;;;10.57;5.60;;;;;;;24.48;100.00;101697.53;5032621;28;20477;-69
2023/07/09 14:23:14;;;;;;;15.55;5.93;;;;;;;24.54;100.00;101690.78;5043116;28;20061;-68
2023/07/09 14:25:40;;;;;;;14.10;5.70;;;;;;;24.71;100.00;101664.56;5032899;28;20086;-69
2023/07/09 14:28:12;;;;;;;9.50;5.57;;;;;;;24.97;100.00;101662.19;5031812;28;20453;-71
2023/07/09 14:30:37;;;;;;;8.45;5.28;;;;;;;25.09;100.00;101647.84;5032377;28;20029;-68
2023/07/09 14:33:04;;;;;;;8.50;5.10;;;;;;;25.02;100.00;101655.75;5035029;28;20104;-68
2023/07/09 14:35:30;;;;;;;8.65;4.80;;;;;;;24.90;100.00;101640.44;5034831;28;20036;-68
2023/07/09 14:37:55;;;;;;;8.68;4.78;;;;;;;24.81;100.00;101650.56;5035116;28;20025;-70
2023/07/09 14:40:21;;;;;;;9.88;4.68;;;;;;;24.77;100.00;101647.56;5034916;28;20342;-69
2023/07/09 14:42:48;;;;;;;9.07;4.43;;;;;;;24.73;100.00;101642.91;5035188;28;20481;-73
2023/07/09 14:45:25;;;;;;;9.63;4.20;;;;;;;24.69;100.00;101651.03;5032255;28;20041;-71
2023/07/09 14:47:52;;;;;;;8.60;4.70;;;;;;;24.56;100.00;101652.59;5033231;28;20052;-69
2023/07/09 14:50:19;;;;;;;9.23;4.70;;;;;;;24.39;100.00;101655.06;5034995;28;20029;-72
2023/07/09 14:52:46;;;;;;;9.55;4.50;;;;;;;24.36;100.00;101650.94;5033172;28;20116;-67
2023/07/09 14:55:17;;;;;;;6.75;4.15;;;;;;;24.17;100.00;101637.13;5034324;28;20034;-67
2023/07/09 14:57:43;;;;;;;9.05;4.40;;;;;;;24.03;100.00;101631.47;5034409;28;20021;-67
2023/07/09 15:00:13;;;;;;;8.80;4.53;;;;;;;23.97;100.00;101618.03;5033556;28;20372;-67
2023/07/09 15:02:41;;;;;;;7.53;4.10;;;;;;;23.93;100.00;101619.75;5032272;28;20104;-67
2023/07/09 15:05:14;;;;;;;8.60;4.18;;;;;;;23.86;100.00;101611.81;5051796;28;20032;-67
2023/07/09 15:07:39;;;;;;;7.38;4.60;;;;;;;23.87;100.00;101610.72;5054132;28;20029;-66
2023/07/09 15:10:07;;;;;;;8.13;4.70;;;;;;;24.00;100.00;101618.25;5054255;28;20025;-67
2023/07/09 15:12:34;;;;;;;7.85;4.53;;;;;;;23.99;100.00;101619.41;5054157;28;20021;-67
2023/07/09 15:15:17;;;;;;;9.30;5.00;;;;;;;24.08;100.00;101622.31;5043522;28;20057;-67
2023/07/09 15:17:43;;;;;;;8.85;5.00;;;;;;;24.04;100.00;101618.50;5032602;28;20076;-67
2023/07/09 15:20:24;;;;;;;9.80;4.75;;;;;;;24.03;100.00;101622.38;5034151;28;20029;-67
2023/07/09 15:22:50;;;;;;;10.25;4.40;;;;;;;24.00;100.00;101623.78;5039644;28;20025;-67
2023/07/09 15:25:20;;;;;;;10.82;4.40;;;;;;;23.97;100.00;101631.84;5051145;28;20095;-67
2023/07/09 15:27:45;;;;;;;7.97;4.40;;;;;;;23.97;100.00;101626.31;5052600;28;20103;-67
2023/07/09 15:30:19;;;;;;;8.90;4.50;;;;;;;23.97;100.00;101624.38;5038567;28;20112;-68
2023/07/09 15:32:46;;;;;;;10.05;4.28;;;;;;;24.17;100.00;101622.44;5033673;28;20036;-67
2023/07/09 15:35:13;;;;;;;7.07;4.40;;;;;;;24.05;100.00;101617.34;5033777;28;20021;-67
2023/07/09 15:37:39;;;;;;;7.07;3.90;;;;;;;24.14;100.00;101623.03;5033434;28;20032;-69
2023/07/09 15:40:24;;;;;;;14.95;7.70;;;;;;;24.34;100.00;101621.94;5033779;28;20018;-67
2023/07/09 15:42:52;;;;;;;8.18;5.55;;;;;;;24.38;100.00;101634.03;5040935;28;20027;-67
2023/07/09 15:45:18;;;;;;;7.75;4.43;;;;;;;24.39;100.00;101621.84;5041261;28;20069;-67
2023/07/09 15:47:45;;;;;;;8.25;4.63;;;;;;;24.48;100.00;101625.59;5033470;28;20064;-66
2023/07/09 15:50:26;;;;;;;8.90;4.50;;;;;;;24.54;100.00;101629.91;5029988;28;20033;-66
2023/07/09 15:52:53;;;;;;;9.57;4.72;;;;;;;24.74;100.00;101633.50;5033329;28;20030;-71
2023/07/09 15:55:24;;;;;;;13.27;7.75;;;;;;;24.97;100.00;101630.91;5033404;28;20028;-68
2023/07/09 15:57:53;;;;;;;11.40;5.60;;;;;;;25.59;100.00;101627.81;5033342;28;20450;-68
2023/07/09 16:00:28;;;;;;;10.10;6.43;;;;;;;26.19;100.00;101624.06;5033133;28;20017;-67
2023/07/09 16:02:55;;;;;;;9.30;4.82;;;;;;;26.60;95.32;101625.03;5043838;28;20036;-72
2023/07/09 16:05:31;;;;;;;9.48;4.22;;;;;;;26.68;92.19;101618.78;5036155;28;20052;-70
2023/07/09 16:08:00;;;;;;;7.85;4.03;;;;;;;26.23;98.19;101616.75;5033124;28;20030;-67
